Akashi — JM6695 — position and weather

sailwx.info

Track history (hours):
 
Tides and Currents Weather Stations Pressure Air Temp Water Temp Dewpoint Dewpoint Depression Visibility Wind Speed Wind Dir Waves Ship Positions

Akashi

Last reported at 2017-Nov-20 00:30 UTC. Time now 2017-Nov-21 13:55 UTC.
Position N 34°41' E 135°16'.

Length 75 m; draft 5 m.

Type: Cargo ship. MMSI: 431301627.

Date/timePositionNaut miles runAvg speedWind from/ knotsBaromVisibWave heightAir tempDewpointWater temp
2017-Nov-20 00:30N 34°41' E 135°16'0 0.8
2017-Nov-20 00:00N 34°41' E 135°16'2 3.6
2017-Nov-19 23:30N 34°39' E 135°15'1 2.1
2017-Nov-19 23:00N 34°40' E 135°15'2 3.8
2017-Nov-19 22:30N 34°41' E 135°13'0 0.0
2017-Nov-19 21:57N 34°41' E 135°13'0 0.0
2017-Nov-19 21:22N 34°41' E 135°13'0 0.0
2017-Nov-19 20:58N 34°41' E 135°13'0 0.1
2017-Nov-19 20:28N 34°41' E 135°13'0 0.1
2017-Nov-19 19:57N 34°41' E 135°13'0 0.1
2017-Nov-19 19:27N 34°41' E 135°13'0 0.1
2017-Nov-19 18:58N 34°41' E 135°13'0 0.0
2017-Nov-19 18:15N 34°41' E 135°13'0 0.0
2017-Nov-19 17:40N 34°41' E 135°13'0 0.0
2017-Nov-19 17:28N 34°41' E 135°13'0 0.0
2017-Nov-19 16:46N 34°41' E 135°13'0 0.2
2017-Nov-19 16:28N 34°41' E 135°13'0 0.1
2017-Nov-19 15:58N 34°41' E 135°13'0 0.0
2017-Nov-19 15:27N 34°41' E 135°13'0 0.0
2017-Nov-19 14:51N 34°41' E 135°13'0 0.0
2017-Nov-19 14:27N 34°41' E 135°13'0 0.1
2017-Nov-19 13:45N 34°41' E 135°13'0 0.2
2017-Nov-19 13:28N 34°41' E 135°13'0 0.1
2017-Nov-19 12:57N 34°41' E 135°13'0 0.1
2017-Nov-19 12:27N 34°41' E 135°13'0 0.1
2017-Nov-19 11:39N 34°41' E 135°13'0 0.3
2017-Nov-19 11:28N 34°41' E 135°13'0 0.0
2017-Nov-19 10:57N 34°41' E 135°13'0 0.0
2017-Nov-19 10:27N 34°41' E 135°13'0 0.1
2017-Nov-19 09:57N 34°41' E 135°13'0 0.1
2017-Nov-19 09:27N 34°41' E 135°13'0 0.0
2017-Nov-19 08:57N 34°41' E 135°13'0 0.1
2017-Nov-19 08:22N 34°41' E 135°13'0 0.1
2017-Nov-19 07:57N 34°41' E 135°13'0 0.0
2017-Nov-19 07:27N 34°41' E 135°13'0 0.0
2017-Nov-19 06:51N 34°41' E 135°13'0 0.0
2017-Nov-19 06:27N 34°41' E 135°13'0 0.0
2017-Nov-19 05:58N 34°41' E 135°13'0 0.0
2017-Nov-19 05:27N 34°41' E 135°13'0 0.0
2017-Nov-19 04:57N 34°41' E 135°13'0 0.1
2017-Nov-19 04:27N 34°41' E 135°13'0 0.1
2017-Nov-19 03:57N 34°41' E 135°13'0 0.7
2017-Nov-19 03:30N 34°41' E 135°13'4 7.2
2017-Nov-19 03:00N 34°38' E 135°14'611.5
2017-Nov-19 02:30N 34°36' E 135°08'510.4
2017-Nov-19 01:59N 34°37' E 135°01'510.7
2017-Nov-19 01:29N 34°35' E 134°55'2 0.0
2017-Nov-17 07:50N 34°37' E 134°56'411.3
2017-Nov-17 07:29N 34°37' E 135°01'510.5
2017-Nov-17 07:00N 34°36' E 135°07'612.1
2017-Nov-17 06:30N 34°38' E 135°14'1 2.8
2017-Nov-17 06:00N 34°39' E 135°15'0 0.0
2017-Nov-17 05:27N 34°39' E 135°15'0 0.0
2017-Nov-17 04:56N 34°39' E 135°15'1 2.1
2017-Nov-17 04:30N 34°40' E 135°14'0 0.0
2017-Nov-17 04:00N 34°40' E 135°14'1 2.3
2017-Nov-17 03:30N 34°40' E 135°15'1 1.7
2017-Nov-17 02:57N 34°41' E 135°16'0 0.0
2017-Nov-17 02:21N 34°41' E 135°16'0 0.1
2017-Nov-17 01:58N 34°41' E 135°16'0 0.4
2017-Nov-17 01:30N 34°41' E 135°17'1 1.0
2017-Nov-17 01:00N 34°40' E 135°16'1 1.4
2017-Nov-17 00:30N 34°41' E 135°15'0 0.7
2017-Nov-17 00:00N 34°41' E 135°15'0 0.1
2017-Nov-16 23:30N 34°41' E 135°15'2 4.1
2017-Nov-16 23:00N 34°39' E 135°15'0 0.5
2017-Nov-16 22:29N 34°39' E 135°15'0 0.0
2017-Nov-16 21:59N 34°39' E 135°15'0 0.0
2017-Nov-16 21:29N 34°39' E 135°15'0 0.0
2017-Nov-16 20:59N 34°39' E 135°15'0 0.0
2017-Nov-16 20:29N 34°39' E 135°15'0 0.0
2017-Nov-16 19:59N 34°39' E 135°15'0 0.1
2017-Nov-16 19:29N 34°39' E 135°15'0 0.0
2017-Nov-16 18:59N 34°39' E 135°15'0 0.0
2017-Nov-16 18:23N 34°39' E 135°15'0 0.1
2017-Nov-16 17:59N 34°39' E 135°15'0 0.0
2017-Nov-16 17:23N 34°39' E 135°15'0 0.2
2017-Nov-16 17:00N 34°39' E 135°15'4 8.2
2017-Nov-16 16:30N 34°37' E 135°11'611.5
2017-Nov-16 16:00N 34°35' E 135°04'8 0.3
2017-Nov-15 13:22N 34°36' E 134°54'410.4
2017-Nov-15 13:00N 34°37' E 134°58'510.3
2017-Nov-15 12:30N 34°36' E 135°04'611.4
2017-Nov-15 12:00N 34°37' E 135°11'4 8.3
2017-Nov-15 11:30N 34°40' E 135°14'0 0.4
2017-Nov-15 10:53N 34°40' E 135°14'0 0.0
2017-Nov-15 10:29N 34°40' E 135°14'0 0.0
2017-Nov-15 09:53N 34°40' E 135°14'0 0.0
2017-Nov-15 08:59N 34°40' E 135°14'0 0.0
2017-Nov-15 08:29N 34°40' E 135°14'0 0.0
2017-Nov-15 08:00N 34°40' E 135°14'1 1.0
2017-Nov-15 07:30N 34°40' E 135°15'1 2.6
2017-Nov-15 07:00N 34°39' E 135°15'0 0.1
2017-Nov-15 06:29N 34°39' E 135°15'2 3.2
2017-Nov-15 06:00N 34°38' E 135°17'510.4
2017-Nov-15 05:30N 34°38' E 135°24'1 2.5
2017-Nov-15 05:00N 34°38' E 135°25'0 0.3
2017-Nov-15 04:30N 34°37' E 135°25'2 4.7
2017-Nov-15 04:00N 34°37' E 135°22'0 0.0
2017-Nov-15 03:30N 34°37' E 135°22'0 0.1
2017-Nov-15 03:00N 34°37' E 135°22'3 6.2
2017-Nov-15 02:30N 34°39' E 135°19'3 5.6
2017-Nov-15 02:00N 34°41' E 135°17'1 1.4
2017-Nov-15 01:30N 34°41' E 135°16'2 2.7
2017-Nov-15 00:55N 34°40' E 135°14'0 0.1
2017-Nov-15 00:30N 34°40' E 135°14'0 0.6
2017-Nov-14 23:50N 34°40' E 135°14'0 0.0
2017-Nov-14 23:30N 34°40' E 135°14'2 2.7
2017-Nov-14 22:56N 34°38' E 135°15'0 0.0
2017-Nov-14 22:28N 34°38' E 135°15'0 0.0
2017-Nov-14 21:34N 34°38' E 135°15'0 0.0
2017-Nov-14 21:16N 34°38' E 135°15'0 0.0
2017-Nov-14 20:58N 34°38' E 135°15'0 0.0
2017-Nov-14 20:28N 34°38' E 135°15'0 0.0
2017-Nov-14 19:52N 34°38' E 135°15'0 0.1
2017-Nov-14 19:28N 34°38' E 135°15'0 0.0
2017-Nov-14 18:58N 34°38' E 135°15'0 0.0
2017-Nov-14 18:28N 34°38' E 135°15'0 0.1
2017-Nov-14 17:58N 34°38' E 135°15'0 0.0
2017-Nov-14 17:28N 34°38' E 135°15'0 0.0
2017-Nov-14 16:58N 34°38' E 135°15'1 1.6
2017-Nov-14 16:30N 34°38' E 135°15'611.1
2017-Nov-14 16:00N 34°35' E 135°09'612.2
2017-Nov-14 15:30N 34°37' E 135°02'13 0.3
2017-Nov-13 01:51N 34°41' E 135°17'0 0.0
2017-Nov-13 01:30N 34°41' E 135°17'1 2.4
2017-Nov-13 01:00N 34°41' E 135°18'611.5
2017-Nov-13 00:30N 34°38' E 135°24'1 1.1
2017-Nov-12 23:40N 34°38' E 135°25'0 0.0
2017-Nov-12 23:29N 34°38' E 135°25'2 4.3
2017-Nov-12 23:00N 34°38' E 135°23'5 9.2
2017-Nov-12 22:30N 34°38' E 135°17'5 9.6
2017-Nov-12 22:00N 34°41' E 135°13'0 0.1
2017-Nov-12 21:19N 34°41' E 135°13'0 0.0
2017-Nov-12 20:55N 34°41' E 135°13'0 0.0
2017-Nov-12 20:25N 34°41' E 135°13'0 0.0
2017-Nov-12 19:55N 34°41' E 135°13'0 0.0
2017-Nov-12 19:25N 34°41' E 135°13'0 0.0
2017-Nov-12 18:49N 34°41' E 135°13'0 0.0
2017-Nov-12 18:25N 34°41' E 135°13'0 0.0
2017-Nov-12 17:55N 34°41' E 135°13'0 0.0
2017-Nov-12 17:25N 34°41' E 135°13'0 0.0
2017-Nov-12 16:55N 34°41' E 135°13'0 0.0
2017-Nov-12 16:25N 34°41' E 135°13'0 0.0
2017-Nov-12 15:55N 34°41' E 135°13'0 0.0
2017-Nov-12 15:25N 34°41' E 135°13'0 0.0
2017-Nov-12 14:55N 34°41' E 135°13'0 0.0
2017-Nov-12 14:25N 34°41' E 135°13'0 0.0
2017-Nov-12 13:55N 34°41' E 135°13'0 0.0
2017-Nov-12 13:25N 34°41' E 135°13'0 0.0
2017-Nov-12 12:55N 34°41' E 135°13'0 0.0
2017-Nov-12 12:25N 34°41' E 135°13'0 0.0
2017-Nov-12 11:49N 34°41' E 135°13'0 0.0
2017-Nov-12 11:25N 34°41' E 135°13'0 0.0
2017-Nov-12 10:49N 34°41' E 135°13'0 0.0
2017-Nov-12 10:07N 34°41' E 135°13'0 0.0
2017-Nov-12 09:49N 34°41' E 135°13'0 0.0
2017-Nov-12 09:25N 34°41' E 135°13'0 0.0
2017-Nov-12 08:55N 34°41' E 135°13'0 0.0
2017-Nov-12 08:25N 34°41' E 135°13'0 0.0
2017-Nov-12 07:55N 34°41' E 135°13'0 0.0
2017-Nov-12 07:25N 34°41' E 135°13'0 0.0
2017-Nov-12 06:55N 34°41' E 135°13'0 0.0
2017-Nov-12 06:25N 34°41' E 135°13'0 0.0
2017-Nov-12 05:55N 34°41' E 135°13'0 0.0
2017-Nov-12 05:25N 34°41' E 135°13'0 0.0
2017-Nov-12 04:49N 34°41' E 135°13'0 0.0
2017-Nov-12 04:25N 34°41' E 135°13'0 0.0
2017-Nov-12 03:55N 34°41' E 135°13'0 0.0
2017-Nov-12 03:25N 34°41' E 135°13'0 0.0
2017-Nov-12 02:55N 34°41' E 135°13'0 0.0
2017-Nov-12 02:25N 34°41' E 135°13'0 0.0
2017-Nov-12 01:55N 34°41' E 135°13'0 0.0
2017-Nov-12 01:13N 34°41' E 135°13'0 0.0
2017-Nov-12 00:55N 34°41' E 135°13'0 0.0
2017-Nov-12 00:19N 34°41' E 135°13'0 0.0
2017-Nov-11 23:55N 34°41' E 135°13'0 0.0
2017-Nov-11 23:25N 34°41' E 135°13'0 0.0
2017-Nov-11 23:00N 34°41' E 135°13'1 2.6
2017-Nov-11 22:30N 34°41' E 135°14'2 3.3
2017-Nov-11 21:55N 34°39' E 135°15'0 0.0
2017-Nov-11 21:25N 34°39' E 135°15'0 0.0
2017-Nov-11 20:55N 34°39' E 135°15'0 0.0
2017-Nov-11 20:25N 34°39' E 135°15'0 0.0
2017-Nov-11 19:55N 34°39' E 135°15'0 0.1
2017-Nov-11 19:25N 34°39' E 135°15'0 0.0
2017-Nov-11 18:49N 34°39' E 135°15'0 0.0
2017-Nov-11 18:19N 34°39' E 135°15'0 0.0
2017-Nov-11 17:49N 34°39' E 135°15'0 0.1
2017-Nov-11 17:25N 34°39' E 135°15'0 0.1
2017-Nov-11 16:55N 34°39' E 135°15'0 0.0
2017-Nov-11 16:25N 34°39' E 135°15'0 0.1
2017-Nov-11 15:55N 34°39' E 135°15'0 0.1
2017-Nov-11 15:26N 34°39' E 135°15'2 4.6
2017-Nov-11 15:00N 34°37' E 135°14'611.9
2017-Nov-11 14:30N 34°35' E 135°07'712.5
2017-Nov-11 13:55N 34°37' E 134°58'2 0.1
2017-Nov-10 02:53N 34°37' E 134°56'613.9
2017-Nov-10 02:29N 34°37' E 135°03'611.6
2017-Nov-10 01:59N 34°36' E 135°10'510.9
2017-Nov-10 01:30N 34°39' E 135°15'2 4.6
2017-Nov-10 01:00N 34°41' E 135°17'  
Track history (hours):
 
Tides and Currents Weather Stations Pressure Air Temp Water Temp Dewpoint Dewpoint Depression Visibility Wind Speed Wind Dir Waves Ship Positions

Akashi

Last reported at 2017-Nov-20 00:30 UTC. Time now 2017-Nov-21 13:55 UTC.
Position N 34°41' E 135°16'.

Length 75 m; draft 5 m.

Type: Cargo ship. MMSI: 431301627.

Date/timePositionNaut miles runAvg speedWind from/ knotsBaromVisibWave heightAir tempDewpointWater temp
2017-Nov-20 00:30N 34°41' E 135°16'0 0.8
2017-Nov-20 00:00N 34°41' E 135°16'2 3.6
2017-Nov-19 23:30N 34°39' E 135°15'1 2.1
2017-Nov-19 23:00N 34°40' E 135°15'2 3.8
2017-Nov-19 22:30N 34°41' E 135°13'0 0.0
2017-Nov-19 21:57N 34°41' E 135°13'0 0.0
2017-Nov-19 21:22N 34°41' E 135°13'0 0.0
2017-Nov-19 20:58N 34°41' E 135°13'0 0.1
2017-Nov-19 20:28N 34°41' E 135°13'0 0.1
2017-Nov-19 19:57N 34°41' E 135°13'0 0.1
2017-Nov-19 19:27N 34°41' E 135°13'0 0.1
2017-Nov-19 18:58N 34°41' E 135°13'0 0.0
2017-Nov-19 18:15N 34°41' E 135°13'0 0.0
2017-Nov-19 17:40N 34°41' E 135°13'0 0.0
2017-Nov-19 17:28N 34°41' E 135°13'0 0.0
2017-Nov-19 16:46N 34°41' E 135°13'0 0.2
2017-Nov-19 16:28N 34°41' E 135°13'0 0.1
2017-Nov-19 15:58N 34°41' E 135°13'0 0.0
2017-Nov-19 15:27N 34°41' E 135°13'0 0.0
2017-Nov-19 14:51N 34°41' E 135°13'0 0.0
2017-Nov-19 14:27N 34°41' E 135°13'0 0.1
2017-Nov-19 13:45N 34°41' E 135°13'0 0.2
2017-Nov-19 13:28N 34°41' E 135°13'0 0.1
2017-Nov-19 12:57N 34°41' E 135°13'0 0.1
2017-Nov-19 12:27N 34°41' E 135°13'0 0.1
2017-Nov-19 11:39N 34°41' E 135°13'0 0.3
2017-Nov-19 11:28N 34°41' E 135°13'0 0.0
2017-Nov-19 10:57N 34°41' E 135°13'0 0.0
2017-Nov-19 10:27N 34°41' E 135°13'0 0.1
2017-Nov-19 09:57N 34°41' E 135°13'0 0.1
2017-Nov-19 09:27N 34°41' E 135°13'0 0.0
2017-Nov-19 08:57N 34°41' E 135°13'0 0.1
2017-Nov-19 08:22N 34°41' E 135°13'0 0.1
2017-Nov-19 07:57N 34°41' E 135°13'0 0.0
2017-Nov-19 07:27N 34°41' E 135°13'0 0.0
2017-Nov-19 06:51N 34°41' E 135°13'0 0.0
2017-Nov-19 06:27N 34°41' E 135°13'0 0.0
2017-Nov-19 05:58N 34°41' E 135°13'0 0.0
2017-Nov-19 05:27N 34°41' E 135°13'0 0.0
2017-Nov-19 04:57N 34°41' E 135°13'0 0.1
2017-Nov-19 04:27N 34°41' E 135°13'0 0.1
2017-Nov-19 03:57N 34°41' E 135°13'0 0.7
2017-Nov-19 03:30N 34°41' E 135°13'4 7.2
2017-Nov-19 03:00N 34°38' E 135°14'611.5
2017-Nov-19 02:30N 34°36' E 135°08'510.4
2017-Nov-19 01:59N 34°37' E 135°01'510.7
2017-Nov-19 01:29N 34°35' E 134°55'2 0.0
2017-Nov-17 07:50N 34°37' E 134°56'411.3
2017-Nov-17 07:29N 34°37' E 135°01'510.5
2017-Nov-17 07:00N 34°36' E 135°07'612.1
2017-Nov-17 06:30N 34°38' E 135°14'1 2.8
2017-Nov-17 06:00N 34°39' E 135°15'0 0.0
2017-Nov-17 05:27N 34°39' E 135°15'0 0.0
2017-Nov-17 04:56N 34°39' E 135°15'1 2.1
2017-Nov-17 04:30N 34°40' E 135°14'0 0.0
2017-Nov-17 04:00N 34°40' E 135°14'1 2.3
2017-Nov-17 03:30N 34°40' E 135°15'1 1.7
2017-Nov-17 02:57N 34°41' E 135°16'0 0.0
2017-Nov-17 02:21N 34°41' E 135°16'0 0.1
2017-Nov-17 01:58N 34°41' E 135°16'0 0.4
2017-Nov-17 01:30N 34°41' E 135°17'1 1.0
2017-Nov-17 01:00N 34°40' E 135°16'1 1.4
2017-Nov-17 00:30N 34°41' E 135°15'0 0.7
2017-Nov-17 00:00N 34°41' E 135°15'0 0.1
2017-Nov-16 23:30N 34°41' E 135°15'2 4.1
2017-Nov-16 23:00N 34°39' E 135°15'0 0.5
2017-Nov-16 22:29N 34°39' E 135°15'0 0.0
2017-Nov-16 21:59N 34°39' E 135°15'0 0.0
2017-Nov-16 21:29N 34°39' E 135°15'0 0.0
2017-Nov-16 20:59N 34°39' E 135°15'0 0.0
2017-Nov-16 20:29N 34°39' E 135°15'0 0.0
2017-Nov-16 19:59N 34°39' E 135°15'0 0.1
2017-Nov-16 19:29N 34°39' E 135°15'0 0.0
2017-Nov-16 18:59N 34°39' E 135°15'0 0.0
2017-Nov-16 18:23N 34°39' E 135°15'0 0.1
2017-Nov-16 17:59N 34°39' E 135°15'0 0.0
2017-Nov-16 17:23N 34°39' E 135°15'0 0.2
2017-Nov-16 17:00N 34°39' E 135°15'4 8.2
2017-Nov-16 16:30N 34°37' E 135°11'611.5
2017-Nov-16 16:00N 34°35' E 135°04'8 0.3
2017-Nov-15 13:22N 34°36' E 134°54'410.4
2017-Nov-15 13:00N 34°37' E 134°58'510.3
2017-Nov-15 12:30N 34°36' E 135°04'611.4
2017-Nov-15 12:00N 34°37' E 135°11'4 8.3
2017-Nov-15 11:30N 34°40' E 135°14'0 0.4
2017-Nov-15 10:53N 34°40' E 135°14'0 0.0
2017-Nov-15 10:29N 34°40' E 135°14'0 0.0
2017-Nov-15 09:53N 34°40' E 135°14'0 0.0
2017-Nov-15 08:59N 34°40' E 135°14'0 0.0
2017-Nov-15 08:29N 34°40' E 135°14'0 0.0
2017-Nov-15 08:00N 34°40' E 135°14'1 1.0
2017-Nov-15 07:30N 34°40' E 135°15'1 2.6
2017-Nov-15 07:00N 34°39' E 135°15'0 0.1
2017-Nov-15 06:29N 34°39' E 135°15'2 3.2
2017-Nov-15 06:00N 34°38' E 135°17'510.4
2017-Nov-15 05:30N 34°38' E 135°24'1 2.5
2017-Nov-15 05:00N 34°38' E 135°25'0 0.3
2017-Nov-15 04:30N 34°37' E 135°25'2 4.7
2017-Nov-15 04:00N 34°37' E 135°22'0 0.0
2017-Nov-15 03:30N 34°37' E 135°22'0 0.1
2017-Nov-15 03:00N 34°37' E 135°22'3 6.2
2017-Nov-15 02:30N 34°39' E 135°19'3 5.6
2017-Nov-15 02:00N 34°41' E 135°17'1 1.4
2017-Nov-15 01:30N 34°41' E 135°16'2 2.7
2017-Nov-15 00:55N 34°40' E 135°14'0 0.1
2017-Nov-15 00:30N 34°40' E 135°14'0 0.6
2017-Nov-14 23:50N 34°40' E 135°14'0 0.0
2017-Nov-14 23:30N 34°40' E 135°14'2 2.7
2017-Nov-14 22:56N 34°38' E 135°15'0 0.0
2017-Nov-14 22:28N 34°38' E 135°15'0 0.0
2017-Nov-14 21:34N 34°38' E 135°15'0 0.0
2017-Nov-14 21:16N 34°38' E 135°15'0 0.0
2017-Nov-14 20:58N 34°38' E 135°15'0 0.0
2017-Nov-14 20:28N 34°38' E 135°15'0 0.0
2017-Nov-14 19:52N 34°38' E 135°15'0 0.1
2017-Nov-14 19:28N 34°38' E 135°15'0 0.0
2017-Nov-14 18:58N 34°38' E 135°15'0 0.0
2017-Nov-14 18:28N 34°38' E 135°15'0 0.1
2017-Nov-14 17:58N 34°38' E 135°15'0 0.0
2017-Nov-14 17:28N 34°38' E 135°15'0 0.0
2017-Nov-14 16:58N 34°38' E 135°15'1 1.6
2017-Nov-14 16:30N 34°38' E 135°15'611.1
2017-Nov-14 16:00N 34°35' E 135°09'612.2
2017-Nov-14 15:30N 34°37' E 135°02'13 0.3
2017-Nov-13 01:51N 34°41' E 135°17'0 0.0
2017-Nov-13 01:30N 34°41' E 135°17'1 2.4
2017-Nov-13 01:00N 34°41' E 135°18'611.5
2017-Nov-13 00:30N 34°38' E 135°24'1 1.1
2017-Nov-12 23:40N 34°38' E 135°25'0 0.0
2017-Nov-12 23:29N 34°38' E 135°25'2 4.3
2017-Nov-12 23:00N 34°38' E 135°23'5 9.2
2017-Nov-12 22:30N 34°38' E 135°17'5 9.6
2017-Nov-12 22:00N 34°41' E 135°13'0 0.1
2017-Nov-12 21:19N 34°41' E 135°13'0 0.0
2017-Nov-12 20:55N 34°41' E 135°13'0 0.0
2017-Nov-12 20:25N 34°41' E 135°13'0 0.0
2017-Nov-12 19:55N 34°41' E 135°13'0 0.0
2017-Nov-12 19:25N 34°41' E 135°13'0 0.0
2017-Nov-12 18:49N 34°41' E 135°13'0 0.0
2017-Nov-12 18:25N 34°41' E 135°13'0 0.0
2017-Nov-12 17:55N 34°41' E 135°13'0 0.0
2017-Nov-12 17:25N 34°41' E 135°13'0 0.0
2017-Nov-12 16:55N 34°41' E 135°13'0 0.0
2017-Nov-12 16:25N 34°41' E 135°13'0 0.0
2017-Nov-12 15:55N 34°41' E 135°13'0 0.0
2017-Nov-12 15:25N 34°41' E 135°13'0 0.0
2017-Nov-12 14:55N 34°41' E 135°13'0 0.0
2017-Nov-12 14:25N 34°41' E 135°13'0 0.0
2017-Nov-12 13:55N 34°41' E 135°13'0 0.0
2017-Nov-12 13:25N 34°41' E 135°13'0 0.0
2017-Nov-12 12:55N 34°41' E 135°13'0 0.0
2017-Nov-12 12:25N 34°41' E 135°13'0 0.0
2017-Nov-12 11:49N 34°41' E 135°13'0 0.0
2017-Nov-12 11:25N 34°41' E 135°13'0 0.0
2017-Nov-12 10:49N 34°41' E 135°13'0 0.0
2017-Nov-12 10:07N 34°41' E 135°13'0 0.0
2017-Nov-12 09:49N 34°41' E 135°13'0 0.0
2017-Nov-12 09:25N 34°41' E 135°13'0 0.0
2017-Nov-12 08:55N 34°41' E 135°13'0 0.0
2017-Nov-12 08:25N 34°41' E 135°13'0 0.0
2017-Nov-12 07:55N 34°41' E 135°13'0 0.0
2017-Nov-12 07:25N 34°41' E 135°13'0 0.0
2017-Nov-12 06:55N 34°41' E 135°13'0 0.0
2017-Nov-12 06:25N 34°41' E 135°13'0 0.0
2017-Nov-12 05:55N 34°41' E 135°13'0 0.0
2017-Nov-12 05:25N 34°41' E 135°13'0 0.0
2017-Nov-12 04:49N 34°41' E 135°13'0 0.0
2017-Nov-12 04:25N 34°41' E 135°13'0 0.0
2017-Nov-12 03:55N 34°41' E 135°13'0 0.0
2017-Nov-12 03:25N 34°41' E 135°13'0 0.0
2017-Nov-12 02:55N 34°41' E 135°13'0 0.0
2017-Nov-12 02:25N 34°41' E 135°13'0 0.0
2017-Nov-12 01:55N 34°41' E 135°13'0 0.0
2017-Nov-12 01:13N 34°41' E 135°13'0 0.0
2017-Nov-12 00:55N 34°41' E 135°13'0 0.0
2017-Nov-12 00:19N 34°41' E 135°13'0 0.0
2017-Nov-11 23:55N 34°41' E 135°13'0 0.0
2017-Nov-11 23:25N 34°41' E 135°13'0 0.0
2017-Nov-11 23:00N 34°41' E 135°13'1 2.6
2017-Nov-11 22:30N 34°41' E 135°14'2 3.3
2017-Nov-11 21:55N 34°39' E 135°15'0 0.0
2017-Nov-11 21:25N 34°39' E 135°15'0 0.0
2017-Nov-11 20:55N 34°39' E 135°15'0 0.0
2017-Nov-11 20:25N 34°39' E 135°15'0 0.0
2017-Nov-11 19:55N 34°39' E 135°15'0 0.1
2017-Nov-11 19:25N 34°39' E 135°15'0 0.0
2017-Nov-11 18:49N 34°39' E 135°15'0 0.0
2017-Nov-11 18:19N 34°39' E 135°15'0 0.0
2017-Nov-11 17:49N 34°39' E 135°15'0 0.1
2017-Nov-11 17:25N 34°39' E 135°15'0 0.1
2017-Nov-11 16:55N 34°39' E 135°15'0 0.0
2017-Nov-11 16:25N 34°39' E 135°15'0 0.1
2017-Nov-11 15:55N 34°39' E 135°15'0 0.1
2017-Nov-11 15:26N 34°39' E 135°15'2 4.6
2017-Nov-11 15:00N 34°37' E 135°14'611.9
2017-Nov-11 14:30N 34°35' E 135°07'712.5
2017-Nov-11 13:55N 34°37' E 134°58'2 0.1
2017-Nov-10 02:53N 34°37' E 134°56'613.9
2017-Nov-10 02:29N 34°37' E 135°03'611.6
2017-Nov-10 01:59N 34°36' E 135°10'510.9
2017-Nov-10 01:30N 34°39' E 135°15'2 4.6
2017-Nov-10 01:00N 34°41' E 135°17'  

Dump ship's entire track history